createdAt,value
2017-04-14T00:00:47.071Z,100373
2017-04-14T00:01:47.124Z,100367
2017-04-14T00:02:47.749Z,100375
2017-04-14T00:03:47.174Z,100369
2017-04-14T00:04:47.210Z,100374
2017-04-14T00:05:47.800Z,100377
2017-04-14T00:06:47.343Z,100373
2017-04-14T00:07:47.949Z,100379
2017-04-14T00:08:47.392Z,100368
2017-04-14T00:09:48.000Z,100378
2017-04-14T00:10:47.484Z,100376
2017-04-14T00:11:47.611Z,100375
2017-04-14T00:12:48.129Z,100373
2017-04-14T00:13:48.201Z,100378
2017-04-14T00:14:47.747Z,100375
2017-04-14T00:15:48.294Z,100373
2017-04-14T00:16:48.373Z,100369
2017-04-14T00:17:48.386Z,100377
2017-04-14T00:18:48.420Z,100374
2017-04-14T00:19:48.156Z,100372
2017-04-14T00:20:48.577Z,100366
2017-04-14T00:21:48.620Z,100367
2017-04-14T00:22:48.675Z,100367
2017-04-14T00:23:48.185Z,100368
2017-04-14T00:24:48.164Z,100368
2017-04-14T00:25:48.923Z,100374
2017-04-14T00:26:48.789Z,100375
2017-04-14T00:27:48.826Z,100366
2017-04-14T00:28:48.805Z,100372
2017-04-14T00:29:48.869Z,100373
2017-04-14T00:30:48.922Z,100362
2017-04-14T00:31:49.185Z,100368
2017-04-14T00:32:49.022Z,100369
2017-04-14T00:33:48.558Z,100369
2017-04-14T00:34:49.145Z,100369
2017-04-14T00:35:48.723Z,100370
2017-04-14T00:36:48.728Z,100363
2017-04-14T00:37:48.952Z,100369
2017-04-14T00:38:49.284Z,100370
2017-04-14T00:39:49.380Z,100362
2017-04-14T00:40:49.401Z,100373
2017-04-14T00:41:49.471Z,100368
2017-04-14T00:42:49.035Z,100367
2017-04-14T00:43:49.780Z,100367
2017-04-14T00:44:49.056Z,100367
2017-04-14T00:45:49.692Z,100363
2017-04-14T00:46:49.722Z,100363
2017-04-14T00:47:49.758Z,100365
2017-04-14T00:48:49.871Z,100363
2017-04-14T00:49:50.157Z,100361
2017-04-14T00:50:49.957Z,100360
2017-04-14T00:51:49.444Z,100364
2017-04-14T00:52:50.048Z,100356
2017-04-14T00:53:49.572Z,100364
2017-04-14T00:54:50.211Z,100355
2017-04-14T00:55:50.405Z,100350
2017-04-14T00:56:50.286Z,100357
2017-04-14T00:57:49.829Z,100358
2017-04-14T00:58:49.914Z,100355
2017-04-14T00:59:49.917Z,100359
2017-04-14T01:00:49.996Z,100355
2017-04-14T01:01:49.950Z,100355
2017-04-14T01:02:51.247Z,100360
2017-04-14T01:03:50.042Z,100359
2017-04-14T01:04:50.099Z,100355
2017-04-14T01:05:50.203Z,100361
2017-04-14T01:06:50.254Z,100360
2017-04-14T01:07:50.836Z,100364
2017-04-14T01:08:50.431Z,100360
2017-04-14T01:09:51.009Z,100359
2017-04-14T01:10:51.040Z,100360
2017-04-14T01:11:50.594Z,100357
2017-04-14T01:12:50.565Z,100356
2017-04-14T01:13:51.197Z,100358
2017-04-14T01:14:50.662Z,100353
2017-04-14T01:15:50.684Z,100361
2017-04-14T01:16:50.764Z,100360
2017-04-14T01:17:50.850Z,100362
2017-04-14T01:18:51.372Z,100362
2017-04-14T01:19:51.458Z,100362
2017-04-14T01:20:51.426Z,100362
2017-04-14T01:21:51.503Z,100360
2017-04-14T01:22:51.523Z,100363
2017-04-14T01:23:51.054Z,100361
2017-04-14T01:24:51.161Z,100366
2017-04-14T01:25:51.187Z,100365
2017-04-14T01:26:51.756Z,100361
2017-04-14T01:27:51.895Z,100361
2017-04-14T01:28:51.918Z,100359
2017-04-14T01:29:51.953Z,100360
2017-04-14T01:30:52.019Z,100360
2017-04-14T01:31:51.535Z,100360
2017-04-14T01:32:52.125Z,100363
2017-04-14T01:33:51.702Z,100363
2017-04-14T01:34:51.785Z,100361
2017-04-14T01:35:51.891Z,100360
2017-04-14T01:36:52.643Z,100361
2017-04-14T01:37:52.518Z,100363
2017-04-14T01:38:52.485Z,100353
2017-04-14T01:39:51.986Z,100360
2017-04-14T01:40:52.541Z,100352
2017-04-14T01:41:52.578Z,100363
2017-04-14T01:42:52.343Z,100364
2017-04-14T01:43:52.640Z,100366
2017-04-14T01:44:52.159Z,100364
2017-04-14T01:45:52.231Z,100364
2017-04-14T01:46:52.282Z,100366
2017-04-14T01:47:52.273Z,100363
2017-04-14T01:48:52.482Z,100365
2017-04-14T01:49:52.266Z,100363
2017-04-14T01:50:52.365Z,100364
2017-04-14T01:51:52.929Z,100360
2017-04-14T01:52:52.448Z,100359
2017-04-14T01:53:52.482Z,100364
2017-04-14T01:54:53.203Z,100362
2017-04-14T01:55:52.563Z,100366
2017-04-14T01:56:53.153Z,100365
2017-04-14T01:57:53.149Z,100361
2017-04-14T01:58:52.676Z,100368
2017-04-14T01:59:53.314Z,100364
2017-04-14T02:00:52.962Z,100363
2017-04-14T02:01:53.384Z,100364
2017-04-14T02:02:52.945Z,100365
2017-04-14T02:03:52.927Z,100364
2017-04-14T02:04:53.017Z,100363
2017-04-14T02:05:53.046Z,100362
2017-04-14T02:06:53.816Z,100361
2017-04-14T02:07:53.646Z,100360
2017-04-14T02:08:53.735Z,100358
2017-04-14T02:09:53.788Z,100357
2017-04-14T02:10:53.200Z,100359
2017-04-14T02:11:53.272Z,100354
2017-04-14T02:12:54.166Z,100359
2017-04-14T02:13:53.405Z,100357
2017-04-14T02:14:53.450Z,100357
2017-04-14T02:15:54.050Z,100353
2017-04-14T02:16:54.071Z,100352
2017-04-14T02:17:54.194Z,100354
2017-04-14T02:18:54.371Z,100353
2017-04-14T02:19:54.233Z,100350
2017-04-14T02:20:54.271Z,100353
2017-04-14T02:21:54.252Z,100354
2017-04-14T02:22:53.767Z,100351
2017-04-14T02:23:53.783Z,100345
2017-04-14T02:24:54.059Z,100350
2017-04-14T02:25:53.899Z,100353
2017-04-14T02:26:54.430Z,100348
2017-04-14T02:27:54.471Z,100353
2017-04-14T02:28:54.532Z,100352
2017-04-14T02:29:54.596Z,100352
2017-04-14T02:30:54.766Z,100353
2017-04-14T02:31:54.036Z,100349
2017-04-14T02:32:54.614Z,100346
2017-04-14T02:33:54.229Z,100354
2017-04-14T02:34:54.323Z,100348
2017-04-14T02:35:54.810Z,100353
2017-04-14T02:36:55.128Z,100350
2017-04-14T02:37:54.330Z,100348
2017-04-14T02:38:54.432Z,100354
2017-04-14T02:39:54.439Z,100354
2017-04-14T02:40:55.038Z,100353
2017-04-14T02:41:55.162Z,100351
2017-04-14T02:42:54.787Z,100354
2017-04-14T02:43:55.282Z,100352
2017-04-14T02:44:55.320Z,100351
2017-04-14T02:45:54.856Z,100352
2017-04-14T02:46:54.878Z,100346
2017-04-14T02:47:55.698Z,100353
2017-04-14T02:48:55.606Z,100355
2017-04-14T02:49:55.064Z,100351
2017-04-14T02:50:55.614Z,100353
2017-04-14T02:51:55.141Z,100354
2017-04-14T02:52:55.210Z,100354
2017-04-14T02:53:55.950Z,100351
2017-04-14T02:54:55.241Z,100350
2017-04-14T02:55:55.264Z,100351
2017-04-14T02:56:55.849Z,100349
2017-04-14T02:57:55.930Z,100354
2017-04-14T02:58:55.453Z,100354
2017-04-14T02:59:56.154Z,100352
2017-04-14T03:00:56.120Z,100354
2017-04-14T03:01:56.102Z,100343
2017-04-14T03:02:55.602Z,100354
2017-04-14T03:03:56.234Z,100350
2017-04-14T03:04:55.697Z,100350
2017-04-14T03:05:56.399Z,100352
2017-04-14T03:06:55.808Z,100346
2017-04-14T03:07:56.342Z,100351
2017-04-14T03:08:55.859Z,100350
2017-04-14T03:09:55.940Z,100350
2017-04-14T03:10:55.965Z,100350
2017-04-14T03:11:56.523Z,100352
2017-04-14T03:12:56.605Z,100354
2017-04-14T03:13:56.706Z,100355
2017-04-14T03:14:56.713Z,100357
2017-04-14T03:15:56.725Z,100357
2017-04-14T03:16:56.814Z,100354
2017-04-14T03:17:56.330Z,100358
2017-04-14T03:18:56.462Z,100360
2017-04-14T03:19:57.039Z,100356
2017-04-14T03:21:02.505Z,100349
2017-04-14T03:21:57.218Z,100355
2017-04-14T03:22:56.703Z,100351
2017-04-14T03:23:56.774Z,100348
2017-04-14T03:24:56.766Z,100352
2017-04-14T03:25:57.316Z,100353
2017-04-14T03:26:56.834Z,100353
2017-04-14T03:27:56.856Z,100347
2017-04-14T03:28:56.863Z,100354
2017-04-14T03:29:56.960Z,100354
2017-04-14T03:30:57.595Z,100345
2017-04-14T03:31:57.608Z,100351
2017-04-14T03:32:57.668Z,100350
2017-04-14T03:33:57.235Z,100349
2017-04-14T03:34:57.328Z,100349
2017-04-14T03:35:57.331Z,100350
2017-04-14T03:36:57.342Z,100350
2017-04-14T03:37:57.456Z,100347
2017-04-14T03:38:57.483Z,100348
2017-04-14T03:39:57.570Z,100351
2017-04-14T03:40:58.074Z,100348
2017-04-14T03:41:57.566Z,100352
2017-04-14T03:42:57.661Z,100350
2017-04-14T03:43:58.199Z,100350
2017-04-14T03:44:57.664Z,100354
2017-04-14T03:45:57.732Z,100354
2017-04-14T03:46:57.772Z,100350
2017-04-14T03:47:57.784Z,100344
2017-04-14T03:48:57.812Z,100349
2017-04-14T03:49:57.869Z,100350
2017-04-14T03:50:58.449Z,100347
2017-04-14T03:51:58.496Z,100345
2017-04-14T03:52:58.511Z,100351
2017-04-14T03:53:58.533Z,100353
2017-04-14T03:54:58.597Z,100348
2017-04-14T03:55:58.111Z,100347
2017-04-14T03:56:58.662Z,100352
2017-04-14T03:58:32.442Z,100353
2017-04-14T03:59:32.495Z,100354
2017-04-14T04:00:32.499Z,100351
2017-04-14T04:01:33.086Z,100352
2017-04-14T04:02:32.672Z,100346
2017-04-14T04:03:33.248Z,100357
2017-04-14T04:04:33.262Z,100355
2017-04-14T04:05:32.753Z,100356
2017-04-14T04:06:32.796Z,100347
2017-04-14T04:07:33.388Z,100354
2017-04-14T04:08:33.414Z,100353
2017-04-14T04:09:33.398Z,100354
2017-04-14T04:10:33.435Z,100355
2017-04-14T04:11:33.482Z,100356
2017-04-14T04:12:33.499Z,100349
2017-04-14T04:13:33.538Z,100350
2017-04-14T04:14:33.655Z,100352
2017-04-14T04:15:33.767Z,100353
2017-04-14T04:16:33.274Z,100351
2017-04-14T04:17:33.822Z,100355
2017-04-14T04:18:33.326Z,100359
2017-04-14T04:19:33.954Z,100357
2017-04-14T04:20:33.493Z,100357
2017-04-14T04:21:33.526Z,100362
2017-04-14T04:22:33.547Z,100360
2017-04-14T04:23:33.619Z,100362
2017-04-14T04:24:34.105Z,100360
2017-04-14T04:25:34.201Z,100357
2017-04-14T04:26:33.746Z,100363
2017-04-14T04:27:34.267Z,100360
2017-04-14T04:28:33.813Z,100356
2017-04-14T04:29:34.381Z,100363
2017-04-14T04:30:33.902Z,100362
2017-04-14T04:31:34.484Z,100360
2017-04-14T04:32:34.020Z,100354
2017-04-14T04:33:34.100Z,100363
2017-04-14T04:34:34.095Z,100365
2017-04-14T04:35:34.074Z,100363
2017-04-14T04:36:34.662Z,100366
2017-04-14T04:37:34.189Z,100366
2017-04-14T04:38:34.711Z,100365
2017-04-14T04:39:34.224Z,100367
2017-04-14T04:40:34.336Z,100366
2017-04-14T04:41:35.402Z,100367
2017-04-14T04:42:34.354Z,100366
2017-04-14T04:43:34.497Z,100365
2017-04-14T04:44:34.558Z,100366
2017-04-14T04:45:35.123Z,100366
2017-04-14T04:46:35.237Z,100365
2017-04-14T04:47:35.226Z,100359
2017-04-14T04:48:35.285Z,100364
2017-04-14T04:49:35.321Z,100365
2017-04-14T04:50:34.832Z,100370
2017-04-14T04:51:35.418Z,100373
2017-04-14T04:52:35.165Z,100371
2017-04-14T04:53:34.984Z,100373
2017-04-14T04:54:35.021Z,100360
2017-04-14T04:55:35.046Z,100367
2017-04-14T04:56:35.109Z,100372
2017-04-14T04:57:36.186Z,100362
2017-04-14T04:58:35.978Z,100368
2017-04-14T04:59:35.241Z,100369
2017-04-14T05:00:35.887Z,100372
2017-04-14T05:01:35.977Z,100370
2017-04-14T05:02:35.482Z,100369
2017-04-14T05:03:36.069Z,100371
2017-04-14T05:04:35.894Z,100370
2017-04-14T05:05:35.700Z,100365
2017-04-14T05:06:36.322Z,100368
2017-04-14T05:07:35.771Z,100371
2017-04-14T05:08:36.394Z,100369
2017-04-14T05:09:35.904Z,100371
2017-04-14T05:10:36.090Z,100370
2017-04-14T05:11:36.497Z,100374
2017-04-14T05:12:36.560Z,100373
2017-04-14T05:13:36.625Z,100367
2017-04-14T05:14:36.144Z,100373
2017-04-14T05:15:36.220Z,100372
2017-04-14T05:16:36.475Z,100367
2017-04-14T05:17:36.861Z,100372
2017-04-14T05:18:36.396Z,100368
2017-04-14T05:19:36.420Z,100376
2017-04-14T05:20:37.013Z,100371
2017-04-14T05:21:37.102Z,100374
2017-04-14T05:22:36.746Z,100377
2017-04-14T05:23:36.641Z,100375
2017-04-14T05:24:37.245Z,100376
2017-04-14T05:25:37.282Z,100377
2017-04-14T05:26:36.804Z,100370
2017-04-14T05:27:36.790Z,100377
2017-04-14T05:28:37.727Z,100379
2017-04-14T05:29:37.595Z,100378
2017-04-14T05:30:37.547Z,100382
2017-04-14T05:31:37.511Z,100383
2017-04-14T05:32:37.084Z,100377
2017-04-14T05:33:37.168Z,100379
2017-04-14T05:34:37.305Z,100380
2017-04-14T05:35:37.736Z,100381
2017-04-14T05:36:37.771Z,100386
2017-04-14T05:37:38.009Z,100387
2017-04-14T05:38:37.315Z,100386
2017-04-14T05:39:37.361Z,100386
2017-04-14T05:40:38.251Z,100379
2017-04-14T05:41:37.479Z,100387
2017-04-14T05:42:38.142Z,100388
2017-04-14T05:43:37.641Z,100389
2017-04-14T05:44:37.644Z,100392
2017-04-14T05:45:38.235Z,100392
2017-04-14T05:46:38.434Z,100393
2017-04-14T05:47:37.808Z,100391
2017-04-14T05:48:37.845Z,100386
2017-04-14T05:49:37.891Z,100391
2017-04-14T05:50:37.939Z,100392
2017-04-14T05:51:37.976Z,100391
2017-04-14T05:52:38.218Z,100386
2017-04-14T05:53:38.120Z,100395
2017-04-14T05:54:38.205Z,100383
2017-04-14T05:55:38.283Z,100395
2017-04-14T05:56:38.368Z,100394
2017-04-14T05:57:38.916Z,100390
2017-04-14T05:58:38.672Z,100393
2017-04-14T05:59:38.429Z,100394
2017-04-14T06:00:38.505Z,100397
2017-04-14T06:01:39.129Z,100396
2017-04-14T06:02:38.576Z,100396
2017-04-14T06:03:38.606Z,100395
2017-04-14T06:04:38.848Z,100396
2017-04-14T06:05:38.654Z,100395
2017-04-14T06:06:38.716Z,100397
2017-04-14T06:07:38.752Z,100394
2017-04-14T06:08:38.782Z,100400
2017-04-14T06:09:38.802Z,100396
2017-04-14T06:10:39.569Z,100397
2017-04-14T06:11:39.400Z,100396
2017-04-14T06:12:39.483Z,100400
2017-04-14T06:13:39.030Z,100399
2017-04-14T06:14:39.638Z,100398
2017-04-14T06:15:39.156Z,100401
2017-04-14T06:16:39.852Z,100403
2017-04-14T06:17:39.733Z,100404
2017-04-14T06:18:39.744Z,100397
2017-04-14T06:19:39.241Z,100404
2017-04-14T06:20:39.252Z,100400
2017-04-14T06:21:39.384Z,100403
2017-04-14T06:22:40.212Z,100404
2017-04-14T06:23:39.526Z,100402
2017-04-14T06:24:40.119Z,100396
2017-04-14T06:25:39.641Z,100404
2017-04-14T06:26:39.667Z,100406
2017-04-14T06:27:39.752Z,100402
2017-04-14T06:28:40.432Z,100403
2017-04-14T06:29:39.781Z,100396
2017-04-14T06:30:39.852Z,100402
2017-04-14T06:31:39.820Z,100404
2017-04-14T06:32:39.907Z,100406
2017-04-14T06:33:40.469Z,100401
2017-04-14T06:34:40.118Z,100402
2017-04-14T06:35:40.597Z,100406
2017-04-14T06:36:40.628Z,100405
2017-04-14T06:37:40.098Z,100404
2017-04-14T06:38:40.624Z,100403
2017-04-14T06:39:40.165Z,100406
2017-04-14T06:40:40.521Z,100404
2017-04-14T06:41:40.261Z,100396
2017-04-14T06:42:40.846Z,100404
2017-04-14T06:43:40.900Z,100406
2017-04-14T06:44:40.408Z,100402
2017-04-14T06:45:40.990Z,100406
2017-04-14T06:46:41.173Z,100405
2017-04-14T06:47:40.540Z,100398
2017-04-14T06:48:41.189Z,100405
2017-04-14T06:49:40.666Z,100404
2017-04-14T06:50:40.692Z,100402
2017-04-14T06:51:41.305Z,100404
2017-04-14T06:52:41.543Z,100405
2017-04-14T06:53:40.853Z,100405
2017-04-14T06:54:41.426Z,100402
2017-04-14T06:55:40.908Z,100402
2017-04-14T06:56:41.437Z,100403
2017-04-14T06:57:41.526Z,100403
2017-04-14T06:58:41.125Z,100400
2017-04-14T06:59:41.537Z,100405
2017-04-14T07:00:41.090Z,100402
2017-04-14T07:01:41.695Z,100396
2017-04-14T07:02:41.713Z,100401
2017-04-14T07:03:41.773Z,100398
2017-04-14T07:04:42.061Z,100402
2017-04-14T07:05:41.356Z,100396
2017-04-14T07:06:41.321Z,100402
2017-04-14T07:07:41.866Z,100401
2017-04-14T07:08:41.355Z,100398
2017-04-14T07:09:41.986Z,100397
2017-04-14T07:10:41.695Z,100401
2017-04-14T07:11:42.127Z,100407
2017-04-14T07:12:42.145Z,100400
2017-04-14T07:13:41.643Z,100405
2017-04-14T07:14:42.158Z,100405
2017-04-14T07:15:41.690Z,100394
2017-04-14T07:16:42.493Z,100403
2017-04-14T07:17:42.411Z,100407
2017-04-14T07:18:41.876Z,100403
2017-04-14T07:19:41.935Z,100395
2017-04-14T07:20:42.451Z,100399
2017-04-14T07:21:42.517Z,100402
2017-04-14T07:22:42.734Z,100400
2017-04-14T07:23:42.045Z,100401
2017-04-14T07:24:42.636Z,100397
2017-04-14T07:25:42.701Z,100400
2017-04-14T07:26:42.727Z,100406
2017-04-14T07:27:42.269Z,100403
2017-04-14T07:28:42.452Z,100408
2017-04-14T07:29:42.795Z,100406
2017-04-14T07:30:42.822Z,100405
2017-04-14T07:31:42.871Z,100408
2017-04-14T07:32:42.448Z,100406
2017-04-14T07:33:42.508Z,100406
2017-04-14T07:34:43.226Z,100406
2017-04-14T07:35:42.614Z,100405
2017-04-14T07:36:42.652Z,100399
2017-04-14T07:37:43.306Z,100403
2017-04-14T07:38:42.774Z,100410
2017-04-14T07:39:42.847Z,100407
2017-04-14T07:40:43.140Z,100406
2017-04-14T07:41:43.520Z,100409
2017-04-14T07:42:43.570Z,100402
2017-04-14T07:43:43.034Z,100405
2017-04-14T07:44:43.060Z,100407
2017-04-14T07:45:43.670Z,100405
2017-04-14T07:46:43.373Z,100405
2017-04-14T07:47:43.736Z,100406
2017-04-14T07:48:43.815Z,100407
2017-04-14T07:49:43.312Z,100403
2017-04-14T07:50:43.913Z,100405
2017-04-14T07:51:43.956Z,100406
2017-04-14T07:52:43.690Z,100404
2017-04-14T07:53:44.088Z,100409
2017-04-14T07:54:44.098Z,100397
2017-04-14T07:55:43.660Z,100400
2017-04-14T07:56:43.705Z,100400
2017-04-14T07:57:43.758Z,100400
2017-04-14T07:58:43.988Z,100402
2017-04-14T07:59:44.430Z,100403
2017-04-14T08:00:44.516Z,100403
2017-04-14T08:01:44.029Z,100399
2017-04-14T08:02:44.117Z,100400
2017-04-14T08:03:44.146Z,100400
2017-04-14T08:04:44.890Z,100397
2017-04-14T08:05:44.760Z,100399
2017-04-14T08:06:44.783Z,100399
2017-04-14T08:07:44.304Z,100392
2017-04-14T08:08:44.350Z,100401
2017-04-14T08:09:44.423Z,100397
2017-04-14T08:10:44.681Z,100399
2017-04-14T08:11:44.545Z,100391
2017-04-14T08:12:45.125Z,100396
2017-04-14T08:13:44.671Z,100397
2017-04-14T08:14:45.335Z,100400
2017-04-14T08:15:44.784Z,100394
2017-04-14T08:16:45.573Z,100403
2017-04-14T08:17:45.449Z,100400
2017-04-14T08:18:44.988Z,100403
2017-04-14T08:19:45.565Z,100407
2017-04-14T08:20:45.642Z,100408
2017-04-14T08:21:46.297Z,100407
2017-04-14T08:22:45.628Z,100403
2017-04-14T08:23:45.337Z,100410
2017-04-14T08:24:45.358Z,100407
2017-04-14T08:25:45.359Z,100403
2017-04-14T08:26:45.978Z,100407
2017-04-14T08:27:45.510Z,100410
2017-04-14T08:28:46.228Z,100411
2017-04-14T08:29:46.080Z,100416
2017-04-14T08:30:46.157Z,100410
2017-04-14T08:31:45.584Z,100416
2017-04-14T08:32:46.256Z,100419
2017-04-14T08:33:45.813Z,100415
2017-04-14T08:34:46.013Z,100417
2017-04-14T08:35:46.457Z,100418
2017-04-14T08:36:45.885Z,100420
2017-04-14T08:37:45.895Z,100420
2017-04-14T08:38:45.993Z,100419
2017-04-14T08:39:46.087Z,100421
2017-04-14T08:40:46.979Z,100414
2017-04-14T08:41:46.191Z,100420
2017-04-14T08:42:46.193Z,100419
2017-04-14T08:43:46.863Z,100413
2017-04-14T08:44:46.315Z,100424
2017-04-14T08:45:46.365Z,100425
2017-04-14T08:46:47.174Z,100417
2017-04-14T08:47:46.987Z,100421
2017-04-14T08:48:47.082Z,100421
2017-04-14T08:49:46.584Z,100422
2017-04-14T08:50:46.651Z,100419
2017-04-14T08:51:47.239Z,100427
2017-04-14T08:52:47.541Z,100425
2017-04-14T08:53:47.419Z,100423
2017-04-14T08:54:46.922Z,100423
2017-04-14T08:55:46.948Z,100425
2017-04-14T08:56:47.042Z,100422
2017-04-14T08:57:47.097Z,100425
2017-04-14T08:58:47.288Z,100424
2017-04-14T08:59:47.714Z,100416
2017-04-14T09:00:47.768Z,100423
2017-04-14T09:01:47.800Z,100423
2017-04-14T09:02:47.865Z,100425
2017-04-14T09:03:47.375Z,100414
2017-04-14T09:04:47.585Z,100421
2017-04-14T09:05:48.054Z,100424
2017-04-14T09:06:47.610Z,100423
2017-04-14T09:07:48.176Z,100416
2017-04-14T09:08:47.706Z,100421
2017-04-14T09:09:47.777Z,100429
2017-04-14T09:10:47.934Z,100423
2017-04-14T09:11:47.892Z,100420
2017-04-14T09:12:48.493Z,100423
2017-04-14T09:13:48.527Z,100426
2017-04-14T09:14:48.010Z,100421
2017-04-14T09:15:48.643Z,100422
2017-04-14T09:16:48.890Z,100426
2017-04-14T09:17:48.737Z,100418
2017-04-14T09:18:48.268Z,100428
2017-04-14T09:19:48.867Z,100420
2017-04-14T09:20:48.386Z,100424
2017-04-14T09:21:48.973Z,100427
2017-04-14T09:22:49.172Z,100424
2017-04-14T09:23:48.486Z,100422
2017-04-14T09:24:48.472Z,100426
2017-04-14T09:25:49.079Z,100431
2017-04-14T09:26:48.669Z,100432
2017-04-14T09:27:49.215Z,100432
2017-04-14T09:28:48.867Z,100430
2017-04-14T09:29:48.703Z,100433
2017-04-14T09:30:48.777Z,100433
2017-04-14T09:31:48.779Z,100433
2017-04-14T09:32:49.324Z,100434
2017-04-14T09:33:49.343Z,100433
2017-04-14T09:34:49.583Z,100427
2017-04-14T09:35:48.853Z,100429
2017-04-14T09:36:49.457Z,100432
2017-04-14T09:37:49.499Z,100430
2017-04-14T09:38:49.061Z,100431
2017-04-14T09:39:49.677Z,100430
2017-04-14T09:40:49.877Z,100435
2017-04-14T09:41:49.654Z,100425
2017-04-14T09:42:49.224Z,100428
2017-04-14T09:43:49.847Z,100437
2017-04-14T09:44:49.870Z,100437
2017-04-14T09:45:49.412Z,100439
2017-04-14T09:46:49.617Z,100434
2017-04-14T09:47:49.481Z,100441
2017-04-14T09:48:49.493Z,100433
2017-04-14T09:49:50.069Z,100431
2017-04-14T09:50:50.109Z,100433
2017-04-14T09:51:49.635Z,100432
2017-04-14T09:52:50.395Z,100438
2017-04-14T09:53:50.284Z,100434
2017-04-14T09:54:49.794Z,100436
2017-04-14T09:55:50.359Z,100434
2017-04-14T09:56:49.907Z,100436
2017-04-14T09:57:50.128Z,100433
2017-04-14T09:58:49.988Z,100431
2017-04-14T09:59:50.572Z,100434
2017-04-14T10:00:50.609Z,100435
2017-04-14T10:01:50.676Z,100433
2017-04-14T10:02:50.794Z,100422
2017-04-14T10:03:50.520Z,100435
2017-04-14T10:04:50.841Z,100433
2017-04-14T10:05:50.367Z,100431
2017-04-14T10:06:50.900Z,100431
2017-04-14T10:07:50.945Z,100432
2017-04-14T10:08:51.073Z,100423
2017-04-14T10:09:51.337Z,100420
2017-04-14T10:10:50.593Z,100421
2017-04-14T10:11:50.672Z,100426
2017-04-14T10:12:51.253Z,100429
2017-04-14T10:13:50.800Z,100425
2017-04-14T10:14:51.416Z,100431
2017-04-14T10:15:51.038Z,100431
2017-04-14T10:16:51.509Z,100425
2017-04-14T10:17:51.604Z,100428
2017-04-14T10:18:51.644Z,100425
2017-04-14T10:19:51.177Z,100429
2017-04-14T10:20:51.216Z,100429
2017-04-14T10:21:51.412Z,100420
2017-04-14T10:22:51.336Z,100419
2017-04-14T10:23:51.378Z,100425
2017-04-14T10:24:51.998Z,100425
2017-04-14T10:25:52.025Z,100430
2017-04-14T10:26:52.072Z,100433
2017-04-14T10:27:52.455Z,100432
2017-04-14T10:28:52.166Z,100430
2017-04-14T10:29:52.305Z,100427
2017-04-14T10:30:52.376Z,100428
2017-04-14T10:31:51.920Z,100428
2017-04-14T10:32:52.553Z,100430
2017-04-14T10:33:52.713Z,100430
2017-04-14T10:34:52.609Z,100426
2017-04-14T10:35:52.135Z,100426
2017-04-14T10:36:52.694Z,100428
2017-04-14T10:37:52.803Z,100426
2017-04-14T10:38:52.304Z,100415
2017-04-14T10:39:53.045Z,100424
2017-04-14T10:40:52.943Z,100420
2017-04-14T10:41:52.413Z,100426
2017-04-14T10:42:53.041Z,100425
2017-04-14T10:43:53.054Z,100429
2017-04-14T10:44:53.135Z,100435
2017-04-14T10:45:52.765Z,100424
2017-04-14T10:46:53.180Z,100432
2017-04-14T10:47:52.692Z,100426
2017-04-14T10:48:53.292Z,100424
2017-04-14T10:49:53.385Z,100423
2017-04-14T10:50:53.402Z,100425
2017-04-14T10:51:53.083Z,100425
2017-04-14T10:52:52.996Z,100426
2017-04-14T10:53:53.624Z,100420
2017-04-14T10:54:53.713Z,100422
2017-04-14T10:55:53.202Z,100425
2017-04-14T10:56:53.794Z,100411
2017-04-14T10:57:54.097Z,100428
2017-04-14T10:58:53.433Z,100416
2017-04-14T10:59:53.947Z,100418
2017-04-14T11:00:54.012Z,100425
2017-04-14T11:01:53.476Z,100421
2017-04-14T11:02:54.069Z,100422
2017-04-14T11:03:54.242Z,100422
2017-04-14T11:04:54.186Z,100419
2017-04-14T11:05:53.652Z,100420
2017-04-14T11:06:53.712Z,100423
2017-04-14T11:07:53.766Z,100424
2017-04-14T11:08:54.574Z,100422
2017-04-14T11:09:54.427Z,100418
2017-04-14T11:10:53.927Z,100423
2017-04-14T11:11:54.048Z,100420
2017-04-14T11:12:54.108Z,100415
2017-04-14T11:13:54.250Z,100415
2017-04-14T11:14:54.993Z,100413
2017-04-14T11:15:54.319Z,100410
2017-04-14T11:16:54.933Z,100412
2017-04-14T11:17:54.439Z,100412
2017-04-14T11:18:55.019Z,100411
2017-04-14T11:19:55.096Z,100409
2017-04-14T11:20:55.319Z,100411
2017-04-14T11:21:55.683Z,100411
2017-04-14T11:22:54.678Z,100410
2017-04-14T11:23:55.365Z,100408
2017-04-14T11:24:54.812Z,100403
2017-04-14T11:25:54.958Z,100408
2017-04-14T11:26:55.454Z,100408
2017-04-14T11:27:55.548Z,100408
2017-04-14T11:28:55.077Z,100402
2017-04-14T11:29:55.032Z,100413
2017-04-14T11:30:55.102Z,100405
2017-04-14T11:31:55.699Z,100410
2017-04-14T11:32:55.265Z,100408
2017-04-14T11:33:55.209Z,100397
2017-04-14T11:34:55.331Z,100403
2017-04-14T11:35:55.390Z,100402
2017-04-14T11:36:55.403Z,100399
2017-04-14T11:37:55.984Z,100402
2017-04-14T11:38:56.106Z,100401
2017-04-14T11:39:55.600Z,100399
2017-04-14T11:40:55.691Z,100403
2017-04-14T11:41:55.693Z,100404
2017-04-14T11:42:55.749Z,100403
2017-04-14T11:43:56.342Z,100397
2017-04-14T11:44:56.422Z,100398
2017-04-14T11:45:56.452Z,100402
2017-04-14T11:46:56.550Z,100400
2017-04-14T11:47:56.008Z,100405
2017-04-14T11:48:56.061Z,100405
2017-04-14T11:49:56.630Z,100407
2017-04-14T11:50:56.759Z,100404
2017-04-14T11:51:56.796Z,100406
2017-04-14T11:52:56.377Z,100408
2017-04-14T11:53:56.377Z,100402
2017-04-14T11:54:56.934Z,100402
2017-04-14T11:55:56.452Z,100406
2017-04-14T11:56:57.048Z,100406
2017-04-14T11:57:57.137Z,100410
2017-04-14T11:58:57.233Z,100409
2017-04-14T11:59:56.792Z,100410
2017-04-14T12:00:57.316Z,100405
2017-04-14T12:01:56.902Z,100412
2017-04-14T12:02:57.485Z,100405
2017-04-14T12:03:57.027Z,100409
2017-04-14T12:04:57.569Z,100410
2017-04-14T12:05:57.643Z,100403
2017-04-14T12:06:57.140Z,100404
2017-04-14T12:07:57.264Z,100401
2017-04-14T12:08:57.810Z,100398
2017-04-14T12:09:57.342Z,100401
2017-04-14T12:10:57.928Z,100404
2017-04-14T12:11:58.003Z,100403
2017-04-14T12:12:58.136Z,100401
2017-04-14T12:13:58.212Z,100400
2017-04-14T12:14:57.775Z,100396
2017-04-14T12:15:58.346Z,100398
2017-04-14T12:16:57.852Z,100393
2017-04-14T12:17:58.378Z,100392
2017-04-14T12:18:57.925Z,100398
2017-04-14T12:19:58.546Z,100400
2017-04-14T12:20:57.972Z,100396
2017-04-14T12:21:58.537Z,100399
2017-04-14T12:22:58.117Z,100400
2017-04-14T12:23:58.121Z,100401
2017-04-14T12:24:58.741Z,100400
2017-04-14T12:25:58.235Z,100400
2017-04-14T12:26:58.307Z,100397
2017-04-14T12:27:58.268Z,100399
2017-04-14T12:28:58.884Z,100395
2017-04-14T12:29:58.962Z,100396